This is the latest recevied weather packets stored in our database for station/object N2XP. If no packets are shown the sender has not sent any weather packets the latest 1 day(s).
| Time | Temp. | Humidity | Pressure | Rain* | Wind** | Luminosity | Snow |
|---|---|---|---|---|---|---|---|
| 1777996835 | 26.11° C | 49% | 1007.6 hPa | 0 mm | 1.79 m/s, 204° | - | - |
| 1777995932 | 25.56° C | 52% | 1007.8 hPa | 0 mm | 0 m/s | - | - |
| 1777995035 | 25° C | 52% | 1008.2 hPa | 0 mm | 1.34 m/s, 237° | - | - |
| 1777994129 | 24.44° C | 54% | 1008.3 hPa | 0 mm | 0.89 m/s, 217° | - | - |
| 1777993229 | 23.89° C | 55% | 1008.2 hPa | 0 mm | 0 m/s | - | - |
| 1777992317 | 22.78° C | 59% | 1008.3 hPa | 0 mm | 0.89 m/s, 209° | - | - |
| 1777991417 | 22.22° C | 58% | 1008.6 hPa | 0 mm | 1.34 m/s, 210° | - | - |
| 1777990513 | 21.67° C | 62% | 1009 hPa | 0 mm | 0.45 m/s, 223° | - | - |
| 1777989605 | 21.11° C | 63% | 1009 hPa | 0 mm | 0 m/s | - | - |
| 1777988753 | 20° C | 64% | 1008.8 hPa | 0 mm | 0.89 m/s, 202° | - | - |
| 1777987856 | 19.44° C | 65% | 1008.8 hPa | 0 mm | 1.34 m/s, 215° | - | - |
| 1777986965 | 18.33° C | 69% | 1008.8 hPa | 0 mm | 0 m/s | - | - |
| 1777986037 | 17.78° C | 73% | 1008.8 hPa | 0 mm | 0.89 m/s, 208° | - | - |
| 1777985131 | 16.67° C | 76% | 1008.9 hPa | 0 mm | 0.89 m/s, 207° | - | - |
| 1777984249 | 15.56° C | 81% | 1008.6 hPa | 0 mm | 0.45 m/s, 217° | - | - |
| 1777983323 | 14.44° C | 84% | 1008.5 hPa | 0 mm | 0.45 m/s, 205° | - | - |
| 1777982426 | 13.89° C | 89% | 1008.6 hPa | 0 mm | 0.45 m/s, 208° | - | - |
| 1777981516 | 13.33° C | 91% | 1008.8 hPa | 0 mm | 0 m/s | - | - |
| 1777980634 | 12.22° C | 94% | 1009 hPa | 0 mm | 0 m/s | - | - |
| 1777979744 | 11.11° C | 93% | 1008.9 hPa | 0 mm | 0 m/s | - | - |
| 1777978826 | 11.11° C | 91% | 1008.7 hPa | 0 mm | 0 m/s | - | - |
| 1777977931 | 11.67° C | 91% | 1008.5 hPa | 0 mm | 0 m/s | - | - |
| 1777977026 | 11.11° C | 89% | 1008.4 hPa | 0 mm | 0 m/s | - | - |
| 1777976118 | 10.56° C | 88% | 1008.8 hPa | 0 mm | 0 m/s | - | - |
| 1777975218 | 10° C | 86% | 1008.9 hPa | 0 mm | 0 m/s | - | - |
* Rain latest hour (hover to see other rain measurements)
** Current wind speed in m/s (hover to see current wind gust speed)